KFAT/FAT METAR and TAF weather

Enter ICAO airport designator
Station Type Date Time Source
KFAT METAR 2019/08/19 01:53 UTC NOAA

KFAT 190153Z 31007KT 10SM CLR 34/08 A2978 RMK AO2 SLP079 HZ DSNT NE-E-S T03390083


Station Type Date Time Source
KFAT Decoded METAR 2019/08/19 01:53 UTC NOAA

Station name not available
Aug 18, 2019 - 09:53 PM EDT / 2019.08.19 0153 UTC
Wind: from the NW (310 degrees) at 8 MPH (7 KT):0
Visibility: 10 mile(s):0
Sky conditions: clear
Temperature: 93.0 F (33.9 C)
Dew Point: 46.9 F (8.3 C)
Relative Humidity: 20%
Pressure (altimeter): 29.78 in. Hg (1008 hPa)
ob: KFAT 190153Z 31007KT 10SM CLR 34/08 A2978 RMK AO2 SLP079 HZ DSNT NE-E-S T03390083
cycle: 2

Station Type Date Time Source
KFAT TAF 2019/08/18 18:22 UTC NOAA

TAF KFAT 181720Z 1818/1918 VRB04KT P6SM SKC
FM190000 30008KT P6SM SKC
TEMPO 1902/1906 32012G19KT

Example: see airport list